Time;durP1;ratioP1;P1;durP2;ratioP2;P2;SDS_P1;SDS_P2;PMS_P1;PMS_P2;Temp;Humidity;BMP_temperature;BMP_pressure;BME280_temperature;BME280_humidity;BME280_pressure;Samples;Min_cycle;Max_cycle;Signal;HPM_P1;HPM_P2
2023/01/28 00:00:57;;;;;;;12.90;10.07;;;5.00;56.50;;;;;;5053725;28;20173;-87
2023/01/28 00:03:23;;;;;;;11.97;9.90;;;5.00;57.40;;;;;;5057414;28;20216;-87
2023/01/28 00:05:48;;;;;;;11.57;9.97;;;5.00;53.40;;;;;;5057736;28;20184;-87
2023/01/28 00:08:14;;;;;;;11.80;10.43;;;5.00;53.20;;;;;;5071317;28;20165;-88
2023/01/28 00:10:41;;;;;;;12.20;10.10;;;5.00;54.40;;;;;;5060585;28;20222;-87
2023/01/28 00:13:14;;;;;;;11.90;10.60;;;5.00;53.50;;;;;;5058709;28;20410;-86
2023/01/28 00:15:41;;;;;;;10.90;9.40;;;5.00;53.70;;;;;;5058764;28;20164;-87
2023/01/28 00:18:07;;;;;;;11.33;9.23;;;5.00;52.10;;;;;;5060386;28;20216;-87
2023/01/28 00:20:34;;;;;;;11.53;9.50;;;5.00;50.90;;;;;;5056634;28;20180;-85
2023/01/28 00:22:59;;;;;;;12.33;10.70;;;5.10;52.70;;;;;;5057775;28;20680;-87
2023/01/28 00:25:25;;;;;;;11.13;9.50;;;5.10;53.40;;;;;;5057688;28;20200;-86
2023/01/28 00:27:51;;;;;;;10.90;9.40;;;5.00;52.40;;;;;;5058127;28;20222;-84
2023/01/28 00:30:18;;;;;;;12.40;10.07;;;5.00;52.00;;;;;;5059186;28;20208;-88
2023/01/28 00:32:43;;;;;;;10.80;9.70;;;5.00;52.30;;;;;;5057493;28;20268;-87
2023/01/28 00:35:10;;;;;;;11.80;10.23;;;4.90;53.50;;;;;;5058339;28;20215;-83
2023/01/28 00:37:37;;;;;;;11.73;9.77;;;5.00;53.70;;;;;;5057148;28;20177;-84
2023/01/28 00:40:04;;;;;;;11.60;9.87;;;5.00;55.30;;;;;;5057319;28;20260;-85
2023/01/28 00:42:29;;;;;;;13.07;9.83;;;5.00;55.70;;;;;;5057915;28;20200;-87
2023/01/28 00:44:55;;;;;;;11.23;9.57;;;4.90;55.20;;;;;;5056528;28;20759;-86
2023/01/28 00:47:20;;;;;;;15.20;10.20;;;4.90;57.30;;;;;;5056962;28;20543;-86
2023/01/28 00:49:46;;;;;;;11.63;9.50;;;5.00;57.30;;;;;;5056519;28;20227;-86
2023/01/28 00:52:12;;;;;;;10.40;8.23;;;4.90;57.10;;;;;;5056574;28;20230;-86
2023/01/28 00:54:37;;;;;;;12.20;10.03;;;4.80;56.70;;;;;;5057767;28;20189;-85
2023/01/28 00:57:04;;;;;;;12.27;9.77;;;4.90;57.80;;;;;;5058560;28;20245;-85
2023/01/28 00:59:30;;;;;;;12.00;9.90;;;4.80;57.60;;;;;;5058061;28;20177;-86
2023/01/28 01:02:10;;;;;;;10.67;9.57;;;4.90;56.60;;;;;;5057948;28;20199;-86
2023/01/28 01:04:36;;;;;;;11.23;9.03;;;5.00;55.80;;;;;;5055762;28;20188;-87
2023/01/28 01:07:02;;;;;;;10.10;7.83;;;4.90;57.00;;;;;;5060121;28;20175;-87
2023/01/28 01:09:27;;;;;;;10.43;8.93;;;4.80;55.90;;;;;;5058695;28;20180;-86
2023/01/28 01:11:54;;;;;;;9.80;8.30;;;4.90;56.80;;;;;;5069819;28;20172;-86
2023/01/28 01:14:20;;;;;;;11.43;9.23;;;4.90;56.50;;;;;;5078840;28;20177;-84
2023/01/28 01:16:49;;;;;;;10.57;8.30;;;4.90;56.80;;;;;;5075098;28;20356;-84
2023/01/28 01:19:21;;;;;;;10.53;8.43;;;4.80;56.20;;;;;;5068705;28;20188;-83
2023/01/28 01:21:49;;;;;;;11.40;8.20;;;4.80;55.50;;;;;;5060897;28;20161;-89
2023/01/28 01:24:15;;;;;;;11.90;9.03;;;4.80;56.00;;;;;;5070292;28;20169;-86
2023/01/28 01:26:41;;;;;;;12.13;9.27;;;4.80;56.80;;;;;;5070526;28;20191;-85
2023/01/28 01:29:08;;;;;;;13.30;10.17;;;4.80;56.90;;;;;;5058149;28;20532;-86
2023/01/28 01:31:35;;;;;;;12.00;10.00;;;4.80;58.40;;;;;;5060177;28;20173;-85
2023/01/28 01:34:00;;;;;;;11.57;9.47;;;4.70;59.30;;;;;;5055365;28;20177;-86
2023/01/28 01:36:28;;;;;;;13.20;10.63;;;4.70;59.50;;;;;;5054839;28;20181;-87
2023/01/28 01:38:56;;;;;;;13.13;11.23;;;4.70;60.60;;;;;;5061186;28;20157;-84
2023/01/28 01:41:29;;;;;;;14.17;11.20;;;4.70;61.60;;;;;;5079919;28;20165;-85
2023/01/28 01:44:03;;;;;;;11.77;10.00;;;4.80;60.70;;;;;;5059551;28;20185;-88
2023/01/28 01:46:36;;;;;;;13.23;10.67;;;4.80;60.10;;;;;;5058574;28;20531;-87
2023/01/28 01:49:20;;;;;;;13.70;10.97;;;4.80;61.10;;;;;;5055699;28;20209;-86
2023/01/28 01:51:52;;;;;;;12.87;10.17;;;4.80;61.40;;;;;;5057116;28;20272;-85
2023/01/28 01:54:20;;;;;;;12.90;10.10;;;4.70;59.30;;;;;;5065987;28;20254;-86
2023/01/28 01:56:48;;;;;;;13.17;10.33;;;4.60;60.30;;;;;;5065888;28;20261;-86
2023/01/28 01:59:21;;;;;;;12.20;10.07;;;4.60;59.80;;;;;;5055594;28;20205;-86
2023/01/28 02:01:47;;;;;;;13.97;10.17;;;4.60;58.60;;;;;;5055468;28;20263;-85
2023/01/28 02:04:24;;;;;;;14.13;10.67;;;4.60;59.90;;;;;;5062268;28;20173;-86
2023/01/28 02:06:49;;;;;;;13.70;10.87;;;4.60;59.20;;;;;;5074186;28;20248;-83
2023/01/28 02:09:28;;;;;;;13.50;10.57;;;4.60;59.40;;;;;;5072833;28;20177;-82
2023/01/28 02:12:26;;;;;;;14.00;10.10;;;4.60;58.40;;;;;;5076415;28;20196;-81
2023/01/28 02:15:02;;;;;;;12.70;9.93;;;4.60;58.60;;;;;;5054546;28;20290;-83
2023/01/28 02:17:38;;;;;;;12.47;9.90;;;4.60;58.40;;;;;;5060624;28;20207;-85
2023/01/28 02:20:13;;;;;;;13.07;10.30;;;4.70;57.70;;;;;;5055686;28;20188;-86
2023/01/28 02:23:00;;;;;;;13.90;10.60;;;4.60;57.30;;;;;;5054921;28;20616;-85
2023/01/28 02:25:39;;;;;;;14.43;11.60;;;4.60;58.10;;;;;;5053211;28;20192;-86
2023/01/28 02:28:31;;;;;;;14.30;11.03;;;4.60;57.20;;;;;;5052563;28;20573;-85
2023/01/28 02:31:07;;;;;;;13.37;10.67;;;4.60;57.40;;;;;;5055255;28;20670;-85
2023/01/28 02:33:45;;;;;;;13.00;10.43;;;4.60;57.40;;;;;;5055515;28;20167;-86
2023/01/28 02:36:29;;;;;;;12.83;10.03;;;4.60;56.30;;;;;;5056012;28;20164;-85
2023/01/28 02:39:00;;;;;;;13.53;10.63;;;4.60;56.90;;;;;;5076458;28;20171;-84
2023/01/28 02:41:35;;;;;;;13.40;10.47;;;4.70;58.10;;;;;;5075468;28;20447;-86
2023/01/28 02:44:02;;;;;;;16.00;12.77;;;4.70;57.40;;;;;;5058833;28;20197;-86
2023/01/28 02:49:17;;;;;;;13.27;10.43;;;4.70;56.10;;;;;;5069295;28;20172;-85
2023/01/28 02:52:12;;;;;;;12.97;10.23;;;4.70;54.70;;;;;;5063661;28;20633;-86
2023/01/28 02:54:59;;;;;;;12.27;10.03;;;4.60;54.70;;;;;;5055218;28;20570;-85
2023/01/28 02:57:42;;;;;;;13.67;10.43;;;4.60;55.30;;;;;;5053562;28;20188;-86
2023/01/28 03:00:15;;;;;;;14.10;10.23;;;4.60;56.80;;;;;;5053295;28;20176;-86
2023/01/28 03:02:49;;;;;;;12.80;9.80;;;4.60;56.70;;;;;;5057819;28;20219;-86
2023/01/28 03:05:23;;;;;;;14.30;11.00;;;4.60;57.50;;;;;;5056108;28;20208;-86
2023/01/28 03:07:50;;;;;;;13.23;10.20;;;4.50;57.70;;;;;;5054254;28;20589;-87
2023/01/28 03:10:21;;;;;;;12.90;10.17;;;4.50;57.20;;;;;;5054569;28;20177;-86
2023/01/28 03:38:40;;;;;;;15.27;11.00;;;4.30;57.30;;;;;;5072398;28;20168;-86
2023/01/28 03:41:09;;;;;;;13.87;10.10;;;4.40;58.20;;;;;;5058892;28;20183;-85
2023/01/28 03:43:38;;;;;;;14.50;11.13;;;4.40;59.20;;;;;;5054445;28;20208;-87
2023/01/28 03:46:05;;;;;;;14.77;10.93;;;4.30;59.20;;;;;;5053318;28;20165;-87
2023/01/28 03:48:31;;;;;;;14.67;11.53;;;4.30;59.00;;;;;;5054466;28;20212;-87
2023/01/28 03:50:59;;;;;;;14.50;10.83;;;4.30;58.30;;;;;;5053938;28;20180;-85
2023/01/28 03:53:25;;;;;;;14.27;10.87;;;4.30;56.70;;;;;;5056181;28;20208;-86
2023/01/28 03:55:53;;;;;;;14.00;10.43;;;4.40;57.20;;;;;;5068576;28;20242;-86
2023/01/28 03:58:20;;;;;;;14.33;11.30;;;4.30;57.70;;;;;;5071743;28;20177;-86
2023/01/28 04:00:47;;;;;;;14.77;11.80;;;4.30;57.30;;;;;;5067762;28;20172;-86
2023/01/28 04:03:15;;;;;;;15.10;10.87;;;4.40;56.40;;;;;;5065429;28;20212;-85
2023/01/28 04:06:03;;;;;;;14.83;11.47;;;4.40;54.30;;;;;;5060189;28;20169;-83
2023/01/28 04:08:30;;;;;;;14.40;10.10;;;4.40;53.40;;;;;;5065097;28;20172;-84
2023/01/28 04:10:56;;;;;;;14.50;10.80;;;4.30;52.30;;;;;;5068618;28;20170;-81
2023/01/28 04:13:22;;;;;;;15.80;12.17;;;4.30;53.20;;;;;;5073425;28;20177;-87
2023/01/28 04:15:50;;;;;;;16.40;12.20;;;4.30;53.60;;;;;;5052878;28;20173;-87
2023/01/28 04:18:15;;;;;;;14.63;11.77;;;4.40;53.90;;;;;;5053012;28;20188;-85
2023/01/28 04:20:42;;;;;;;13.70;10.80;;;4.40;53.60;;;;;;5053686;28;20238;-88
2023/01/28 04:23:08;;;;;;;15.57;11.37;;;4.30;52.90;;;;;;5053202;28;20270;-86
2023/01/28 04:25:34;;;;;;;13.40;10.63;;;4.20;53.90;;;;;;5053254;28;20180;-85
2023/01/28 04:28:00;;;;;;;14.27;10.93;;;4.20;55.90;;;;;;5051867;28;20177;-85
2023/01/28 04:30:26;;;;;;;16.03;11.53;;;4.30;55.00;;;;;;5052876;28;20219;-87
2023/01/28 04:32:53;;;;;;;15.50;11.27;;;4.40;53.50;;;;;;5053412;28;20184;-83
2023/01/28 04:35:19;;;;;;;15.70;12.03;;;4.30;52.90;;;;;;5061205;28;20173;-85
2023/01/28 04:37:45;;;;;;;13.70;10.50;;;4.30;53.20;;;;;;5052716;28;20177;-85
2023/01/28 04:40:12;;;;;;;14.93;11.53;;;4.30;53.10;;;;;;5051957;28;20260;-85
2023/01/28 04:42:38;;;;;;;14.60;11.03;;;4.30;53.90;;;;;;5051885;28;20304;-85
2023/01/28 04:45:05;;;;;;;15.60;11.33;;;4.30;51.40;;;;;;5052083;28;20180;-85
2023/01/28 04:47:30;;;;;;;13.53;10.23;;;4.30;50.60;;;;;;5056925;28;20647;-85
2023/01/28 04:49:57;;;;;;;14.70;11.67;;;4.20;49.50;;;;;;5056012;28;20264;-85
2023/01/28 04:52:22;;;;;;;13.80;10.33;;;4.30;50.20;;;;;;5056573;28;20195;-86
2023/01/28 04:54:48;;;;;;;14.27;9.93;;;4.30;48.80;;;;;;5057053;28;20185;-85
2023/01/28 04:57:15;;;;;;;14.27;10.60;;;4.30;49.40;;;;;;5056303;28;20173;-86
2023/01/28 04:59:41;;;;;;;14.50;10.83;;;4.30;50.40;;;;;;5056437;28;20220;-86
2023/01/28 05:02:06;;;;;;;15.53;11.57;;;4.20;52.20;;;;;;5057426;28;20228;-85
2023/01/28 05:04:32;;;;;;;14.27;11.13;;;4.20;53.50;;;;;;5038379;28;20184;-86
2023/01/28 05:06:58;;;;;;;14.30;11.13;;;4.20;55.00;;;;;;5055907;28;20176;-85
2023/01/28 05:09:23;;;;;;;12.33;9.17;;;4.10;54.70;;;;;;5056176;28;20181;-84
2023/01/28 05:11:49;;;;;;;12.70;9.67;;;4.10;53.90;;;;;;5054987;28;20173;-83
2023/01/28 05:14:15;;;;;;;13.47;9.00;;;4.00;55.50;;;;;;5058654;28;20177;-83
2023/01/28 05:16:40;;;;;;;14.23;10.33;;;4.00;55.80;;;;;;5058578;28;20191;-83
2023/01/28 05:19:06;;;;;;;13.77;10.50;;;4.00;56.40;;;;;;5058517;28;20242;-86
2023/01/28 05:21:33;;;;;;;14.80;10.80;;;4.00;56.70;;;;;;5067930;28;20177;-83
2023/01/28 05:23:58;;;;;;;14.00;10.30;;;4.00;56.30;;;;;;5079403;28;20255;-83
2023/01/28 05:26:24;;;;;;;12.13;9.20;;;4.00;55.00;;;;;;5080092;28;20158;-86
2023/01/28 05:28:53;;;;;;;12.30;9.17;;;4.00;54.30;;;;;;5076387;28;20200;-86
2023/01/28 05:31:46;;;;;;;12.53;9.50;;;3.90;53.90;;;;;;5066008;28;20173;-86
2023/01/28 05:34:13;;;;;;;12.23;10.00;;;3.90;54.30;;;;;;5055879;28;20630;-86
2023/01/28 05:36:40;;;;;;;11.93;9.80;;;3.90;53.20;;;;;;5055290;28;20168;-86
2023/01/28 05:39:06;;;;;;;13.03;9.90;;;4.00;53.80;;;;;;5055206;28;20179;-85
2023/01/28 05:41:32;;;;;;;11.90;8.80;;;4.00;53.10;;;;;;5055476;28;20532;-86
2023/01/28 05:43:58;;;;;;;13.00;10.60;;;4.00;51.60;;;;;;5055487;28;20212;-86
2023/01/28 05:46:25;;;;;;;11.70;8.93;;;3.90;50.30;;;;;;5055139;28;20165;-86
2023/01/28 05:48:51;;;;;;;11.63;9.27;;;4.00;47.40;;;;;;5056414;28;20543;-86
2023/01/28 05:51:16;;;;;;;12.80;9.97;;;3.90;47.90;;;;;;5057083;28;20169;-86
2023/01/28 05:53:42;;;;;;;13.77;9.33;;;3.90;49.50;;;;;;5069527;28;20277;-86
2023/01/28 05:56:08;;;;;;;14.40;9.80;;;3.90;48.00;;;;;;5079200;28;20165;-88
2023/01/28 05:58:33;;;;;;;12.00;9.60;;;3.90;45.80;;;;;;5078965;28;20184;-85
2023/01/28 06:00:59;;;;;;;13.17;10.40;;;3.90;46.40;;;;;;5065683;28;20173;-84
2023/01/28 06:03:24;;;;;;;12.73;9.60;;;3.80;47.30;;;;;;5077335;28;20299;-83
2023/01/28 06:05:50;;;;;;;12.33;9.90;;;3.90;48.40;;;;;;5075424;28;20173;-85
2023/01/28 06:08:18;;;;;;;13.80;9.33;;;3.80;46.40;;;;;;5071500;28;20180;-85
2023/01/28 06:10:48;;;;;;;11.57;10.13;;;4.00;45.40;;;;;;5057508;28;20173;-86
2023/01/28 06:13:14;;;;;;;12.63;10.30;;;3.90;46.00;;;;;;5066813;28;20154;-83
2023/01/28 06:15:40;;;;;;;10.93;8.77;;;3.90;43.20;;;;;;5074092;28;20604;-85
2023/01/28 06:18:06;;;;;;;11.93;9.43;;;3.80;42.20;;;;;;5058058;28;20223;-85
2023/01/28 06:20:34;;;;;;;11.53;9.23;;;3.80;43.00;;;;;;5058961;28;20694;-82
2023/01/28 06:23:00;;;;;;;10.83;8.40;;;3.70;44.30;;;;;;5064181;28;20284;-83
2023/01/28 06:25:27;;;;;;;10.40;9.03;;;3.80;45.90;;;;;;5059100;28;20203;-83
2023/01/28 06:27:53;;;;;;;10.73;8.60;;;3.80;44.50;;;;;;5072691;28;20186;-81
2023/01/28 06:30:19;;;;;;;11.40;9.20;;;3.80;44.50;;;;;;5075298;28;20173;-82
2023/01/28 06:32:45;;;;;;;11.20;9.10;;;3.80;41.10;;;;;;5077120;28;20167;-81
2023/01/28 06:35:10;;;;;;;13.03;9.37;;;3.90;37.30;;;;;;5072168;28;20171;-82
2023/01/28 06:37:36;;;;;;;11.80;9.57;;;3.70;38.30;;;;;;5055722;28;20239;-84
2023/01/28 06:40:04;;;;;;;10.77;8.97;;;3.70;38.50;;;;;;5058514;28;20165;-85
2023/01/28 06:42:29;;;;;;;12.87;9.27;;;3.70;35.40;;;;;;5058498;28;20252;-86
2023/01/28 06:44:55;;;;;;;10.20;8.70;;;3.70;33.90;;;;;;5055431;28;20188;-87
2023/01/28 06:47:24;;;;;;;11.20;8.33;;;3.70;32.80;;;;;;5054850;28;20659;-85
2023/01/28 06:49:49;;;;;;;10.33;9.13;;;3.80;33.60;;;;;;5055595;28;20168;-86
2023/01/28 06:52:15;;;;;;;11.67;9.33;;;3.80;34.80;;;;;;5053302;28;20264;-83
2023/01/28 06:54:44;;;;;;;12.00;9.10;;;3.80;36.00;;;;;;5054150;28;20246;-85
2023/01/28 06:57:10;;;;;;;10.87;8.87;;;4.00;32.80;;;;;;5053595;28;20200;-84
2023/01/28 06:59:39;;;;;;;12.07;9.57;;;3.80;31.80;;;;;;5052915;28;20185;-83
2023/01/28 07:02:05;;;;;;;12.43;9.60;;;3.80;33.30;;;;;;5055554;28;20192;-86
2023/01/28 07:04:31;;;;;;;12.10;9.50;;;3.80;31.80;;;;;;5053456;28;20185;-86
2023/01/28 07:07:05;;;;;;;12.40;9.47;;;3.80;33.60;;;;;;5053850;28;20215;-86
2023/01/28 07:09:30;;;;;;;12.43;9.63;;;3.90;35.70;;;;;;5053943;28;20264;-86
2023/01/28 07:11:59;;;;;;;16.50;10.87;;;3.80;38.00;;;;;;5054431;28;20197;-86
2023/01/28 07:14:32;;;;;;;12.53;9.50;;;3.80;36.60;;;;;;5054042;28;20239;-86
2023/01/28 07:17:01;;;;;;;12.47;9.20;;;3.80;34.30;;;;;;5052974;28;20177;-86
2023/01/28 07:19:29;;;;;;;10.57;8.37;;;3.80;35.20;;;;;;5053610;28;20212;-86
2023/01/28 07:21:57;;;;;;;11.80;9.67;;;3.70;35.70;;;;;;5053744;28;20299;-84
2023/01/28 07:24:23;;;;;;;13.23;9.30;;;3.80;38.40;;;;;;5053273;28;20184;-85
2023/01/28 07:26:50;;;;;;;12.30;9.57;;;3.80;39.60;;;;;;5053470;28;20169;-86
2023/01/28 07:29:16;;;;;;;12.10;9.97;;;3.70;38.30;;;;;;5052472;28;20256;-85
2023/01/28 07:31:41;;;;;;;11.30;8.63;;;3.70;37.30;;;;;;5053661;28;20250;-86
2023/01/28 07:34:08;;;;;;;12.30;9.10;;;3.70;34.00;;;;;;5054465;28;20181;-84
2023/01/28 07:36:34;;;;;;;13.53;10.93;;;3.60;36.70;;;;;;5054073;28;20204;-86
2023/01/28 07:38:59;;;;;;;13.43;10.10;;;3.70;36.80;;;;;;5055445;28;20169;-85
2023/01/28 07:41:26;;;;;;;12.70;10.40;;;3.70;36.70;;;;;;5054798;28;20176;-87
2023/01/28 07:43:52;;;;;;;12.30;9.60;;;3.60;37.90;;;;;;5053415;28;20282;-86
2023/01/28 07:46:18;;;;;;;13.50;10.27;;;3.70;36.50;;;;;;5056212;28;20633;-85
2023/01/28 07:48:44;;;;;;;11.77;9.63;;;3.80;35.60;;;;;;5055591;28;20242;-86
2023/01/28 07:51:10;;;;;;;13.00;9.87;;;3.70;32.90;;;;;;5055829;28;20173;-85
2023/01/28 07:53:39;;;;;;;12.73;10.23;;;3.70;35.20;;;;;;5056117;28;20525;-87
2023/01/28 07:56:05;;;;;;;13.00;9.90;;;3.70;36.60;;;;;;5055281;28;20268;-86
2023/01/28 07:58:33;;;;;;;12.33;10.10;;;3.70;35.90;;;;;;5054778;28;20180;-86
2023/01/28 08:00:59;;;;;;;12.87;10.03;;;3.90;33.70;;;;;;5055785;28;20176;-85
2023/01/28 08:03:26;;;;;;;13.20;10.60;;;3.80;31.50;;;;;;5054223;28;20248;-84
2023/01/28 08:05:54;;;;;;;11.47;9.97;;;3.80;33.20;;;;;;5053569;28;20176;-84
2023/01/28 08:08:24;;;;;;;12.23;10.20;;;3.90;31.90;;;;;;5054130;28;20212;-86
2023/01/28 08:10:50;;;;;;;12.67;10.30;;;3.80;31.00;;;;;;5055362;28;20173;-86
2023/01/28 08:13:17;;;;;;;13.07;10.07;;;3.90;32.10;;;;;;5063533;28;20183;-84
2023/01/28 08:15:43;;;;;;;12.10;9.60;;;3.90;33.30;;;;;;5058904;28;20386;-85
2023/01/28 08:18:13;;;;;;;12.03;9.67;;;3.80;35.00;;;;;;5052761;28;20192;-87
2023/01/28 08:20:41;;;;;;;13.17;10.20;;;3.80;35.50;;;;;;5052347;28;20219;-86
2023/01/28 08:23:18;;;;;;;13.40;9.27;;;3.70;34.30;;;;;;5054406;28;20205;-86
2023/01/28 08:25:44;;;;;;;14.83;11.03;;;3.60;36.80;;;;;;5057738;28;20633;-91
2023/01/28 08:28:11;;;;;;;14.37;10.93;;;3.60;39.90;;;;;;5059848;28;20219;-84
2023/01/28 08:30:38;;;;;;;12.97;10.13;;;3.70;38.00;;;;;;5056869;28;20259;-83
2023/01/28 08:33:05;;;;;;;13.57;10.37;;;3.80;38.60;;;;;;5055829;28;20374;-85
2023/01/28 08:35:32;;;;;;;14.53;11.57;;;3.80;38.30;;;;;;5062992;28;20196;-87
2023/01/28 08:38:02;;;;;;;14.30;10.80;;;3.80;37.50;;;;;;5059440;28;20176;-86
2023/01/28 08:40:29;;;;;;;17.33;12.40;;;3.70;37.30;;;;;;5056416;28;20177;-86
2023/01/28 08:42:55;;;;;;;14.27;10.23;;;3.70;38.60;;;;;;5057172;28;20307;-84
2023/01/28 08:45:24;;;;;;;13.77;10.73;;;3.70;38.00;;;;;;5062470;28;20203;-88
2023/01/28 08:47:55;;;;;;;13.33;10.70;;;3.60;39.50;;;;;;5067235;28;20181;-84
2023/01/28 08:50:21;;;;;;;12.60;9.93;;;3.70;40.90;;;;;;5063696;28;20177;-84
2023/01/28 08:52:48;;;;;;;14.13;10.30;;;3.70;38.90;;;;;;5057770;28;20196;-85
2023/01/28 08:55:15;;;;;;;13.83;10.47;;;3.60;41.60;;;;;;5060682;28;20189;-85
2023/01/28 08:57:41;;;;;;;14.43;10.00;;;3.60;41.70;;;;;;5062118;28;20203;-84
2023/01/28 09:00:09;;;;;;;15.50;11.27;;;3.60;43.10;;;;;;5064013;28;20207;-87
2023/01/28 09:02:36;;;;;;;15.20;11.77;;;3.50;42.60;;;;;;5072926;28;20226;-87
2023/01/28 09:05:02;;;;;;;13.80;10.87;;;3.60;44.20;;;;;;5065635;28;20188;-85
2023/01/28 09:07:28;;;;;;;13.77;9.97;;;3.60;42.80;;;;;;5059907;28;20181;-87
2023/01/28 09:09:54;;;;;;;14.57;10.90;;;3.60;44.10;;;;;;5057783;28;20168;-87
2023/01/28 09:12:19;;;;;;;14.17;10.73;;;3.50;45.90;;;;;;5058747;28;20169;-86
2023/01/28 09:14:46;;;;;;;15.40;11.67;;;3.50;46.20;;;;;;5070544;28;20180;-86
2023/01/28 09:17:12;;;;;;;16.40;12.30;;;3.70;46.00;;;;;;5064037;28;20177;-87
2023/01/28 09:19:38;;;;;;;14.57;11.67;;;3.70;44.90;;;;;;5055202;28;20188;-87
2023/01/28 09:22:08;;;;;;;14.97;11.70;;;3.60;43.00;;;;;;5060388;28;20195;-88
2023/01/28 09:24:34;;;;;;;14.33;11.60;;;3.60;44.40;;;;;;5057581;28;20617;-87
2023/01/28 09:27:00;;;;;;;15.20;12.23;;;3.70;45.80;;;;;;5057969;28;20172;-87
2023/01/28 09:29:25;;;;;;;16.03;11.40;;;3.50;47.10;;;;;;5057729;28;20184;-88
2023/01/28 09:31:51;;;;;;;15.37;11.20;;;3.50;46.80;;;;;;5061403;28;20630;-87
2023/01/28 09:34:17;;;;;;;14.67;11.63;;;3.60;46.20;;;;;;5065533;28;20633;-88
2023/01/28 09:36:44;;;;;;;14.93;11.20;;;3.50;47.80;;;;;;5063616;28;20169;-89
2023/01/28 09:39:09;;;;;;;16.33;12.07;;;3.50;47.90;;;;;;5057080;28;20176;-87
2023/01/28 09:42:01;;;;;;;16.53;11.90;;;3.50;45.10;;;;;;5057892;28;20644;-86
2023/01/28 09:44:43;;;;;;;16.77;11.73;;;3.50;45.50;;;;;;5011443;28;20739;-89
2023/01/28 09:47:29;;;;;;;18.30;12.60;;;3.50;41.30;;;;;;5057095;28;20653;-88
2023/01/28 09:49:59;;;;;;;20.10;15.17;;;3.40;37.70;;;;;;5055197;28;20885;-89
2023/01/28 09:52:35;;;;;;;19.87;14.67;;;3.40;36.40;;;;;;5055546;28;20169;-89
2023/01/28 09:55:03;;;;;;;19.00;14.83;;;3.40;36.20;;;;;;5058120;28;20196;-88
2023/01/28 09:57:46;;;;;;;20.37;14.20;;;3.60;35.50;;;;;;5056277;28;20176;-88
2023/01/28 10:00:21;;;;;;;19.23;13.43;;;3.40;37.10;;;;;;5060825;28;20169;-91
2023/01/28 10:03:13;;;;;;;18.10;12.20;;;3.40;38.10;;;;;;5069688;28;20208;-90
2023/01/28 10:05:58;;;;;;;18.53;12.80;;;3.30;39.10;;;;;;5019604;28;20181;-89
2023/01/28 10:08:51;;;;;;;18.53;12.70;;;3.30;40.60;;;;;;5057494;28;20172;-89
2023/01/28 10:11:42;;;;;;;16.10;11.77;;;3.30;38.80;;;;;;5061304;28;20706;-88
2023/01/28 10:14:11;;;;;;;20.00;13.47;;;3.40;36.30;;;;;;5062738;28;20165;-90
2023/01/28 10:16:44;;;;;;;18.07;13.60;;;3.40;36.80;;;;;;5059221;28;20173;-87
2023/01/28 10:19:26;;;;;;;17.67;13.83;;;3.50;37.80;;;;;;5061849;28;20188;-88
2023/01/28 10:21:59;;;;;;;19.03;13.27;;;3.50;37.30;;;;;;5067709;28;20173;-89
2023/01/28 10:24:57;;;;;;;18.10;12.67;;;3.50;37.70;;;;;;5067804;28;20161;-88
2023/01/28 10:27:27;;;;;;;16.47;11.90;;;3.50;36.70;;;;;;5073857;28;20165;-85
2023/01/28 10:29:54;;;;;;;17.70;12.83;;;3.40;38.10;;;;;;5077434;28;20175;-86
2023/01/28 10:32:29;;;;;;;16.30;12.00;;;3.50;38.70;;;;;;5055861;28;20256;-87
2023/01/28 10:35:23;;;;;;;17.57;13.00;;;3.40;36.10;;;;;;5076294;28;20188;-88
2023/01/28 10:37:56;;;;;;;18.00;12.50;;;3.40;37.10;;;;;;5061980;28;20164;-89
2023/01/28 10:40:21;;;;;;;17.30;12.97;;;3.30;39.80;;;;;;5061594;28;20163;-88
2023/01/28 10:42:47;;;;;;;15.27;11.77;;;3.50;41.90;;;;;;5062161;28;20687;-89
2023/01/28 10:45:19;;;;;;;18.07;13.83;;;3.40;41.20;;;;;;5069298;28;20262;-89
2023/01/28 10:47:54;;;;;;;17.33;11.87;;;3.40;41.90;;;;;;5066876;28;20192;-87
2023/01/28 10:50:27;;;;;;;17.67;12.30;;;3.30;41.80;;;;;;5066490;28;20176;-85
2023/01/28 10:53:04;;;;;;;17.00;11.80;;;3.30;41.10;;;;;;5069261;28;20173;-87
2023/01/28 10:55:45;;;;;;;17.60;12.27;;;3.40;42.10;;;;;;5069652;28;20190;-83
2023/01/28 10:58:19;;;;;;;16.87;12.03;;;3.40;42.00;;;;;;5062568;28;20199;-89
2023/01/28 11:00:55;;;;;;;17.77;12.23;;;3.50;42.10;;;;;;5038346;28;20634;-88
2023/01/28 11:03:22;;;;;;;16.00;12.07;;;3.40;41.90;;;;;;5058689;28;20240;-89
2023/01/28 11:05:53;;;;;;;15.03;12.30;;;3.50;42.70;;;;;;5071362;28;20268;-87
2023/01/28 11:08:23;;;;;;;17.13;12.30;;;3.30;42.80;;;;;;5070693;28;20212;-85
2023/01/28 11:10:52;;;;;;;15.93;12.33;;;3.30;42.70;;;;;;5071508;28;20177;-89
2023/01/28 11:13:24;;;;;;;15.67;11.80;;;3.30;44.60;;;;;;5070269;28;20204;-87
2023/01/28 11:16:05;;;;;;;16.70;12.17;;;3.30;44.70;;;;;;5064909;28;20519;-87
2023/01/28 11:19:06;;;;;;;19.07;13.17;;;3.30;43.40;;;;;;5060123;28;20188;-88
2023/01/28 11:21:34;;;;;;;18.50;12.70;;;3.40;44.00;;;;;;5045059;28;20216;-84
2023/01/28 11:24:15;;;;;;;17.43;13.07;;;3.40;43.40;;;;;;5068843;28;20206;-85
2023/01/28 11:26:50;;;;;;;16.67;12.23;;;3.40;45.10;;;;;;5049278;28;20540;-87
2023/01/28 11:29:33;;;;;;;17.53;12.63;;;3.40;42.00;;;;;;5037366;28;20216;-84
2023/01/28 11:32:00;;;;;;;16.83;12.17;;;3.60;43.70;;;;;;5050512;28;20188;-86
2023/01/28 11:34:29;;;;;;;18.17;12.77;;;3.70;42.60;;;;;;5054878;28;20717;-84
2023/01/28 11:37:02;;;;;;;17.40;12.47;;;3.60;41.30;;;;;;5073783;28;20188;-84
2023/01/28 11:39:29;;;;;;;15.70;11.90;;;3.60;39.70;;;;;;5068198;28;20201;-84
2023/01/28 11:42:18;;;;;;;15.30;11.47;;;3.60;40.40;;;;;;5073474;28;20157;-86
2023/01/28 11:44:48;;;;;;;19.60;12.93;;;3.60;39.20;;;;;;5051627;28;20701;-85
2023/01/28 11:47:21;;;;;;;16.73;12.03;;;3.60;37.50;;;;;;5069967;28;20700;-83
2023/01/28 11:50:02;;;;;;;16.13;12.47;;;3.60;35.70;;;;;;5056644;28;20274;-86
2023/01/28 11:52:56;;;;;;;15.63;11.97;;;3.50;36.50;;;;;;5054573;28;20215;-85
2023/01/28 11:55:32;;;;;;;15.50;11.20;;;3.50;33.30;;;;;;5010783;28;20205;-84
2023/01/28 11:58:30;;;;;;;15.50;10.53;;;3.50;34.30;;;;;;5061595;28;20279;-86
2023/01/28 12:01:19;;;;;;;15.83;11.33;;;3.50;29.30;;;;;;5068662;28;20188;-87
2023/01/28 12:04:03;;;;;;;14.60;10.60;;;3.40;30.00;;;;;;5058985;28;20205;-85
2023/01/28 12:06:59;;;;;;;15.13;11.33;;;3.40;30.20;;;;;;5057999;28;20176;-86
2023/01/28 12:09:57;;;;;;;15.17;11.40;;;3.30;30.80;;;;;;5060593;28;20181;-87
2023/01/28 12:12:41;;;;;;;17.00;11.47;;;3.40;31.70;;;;;;5058345;28;20546;-84
2023/01/28 12:15:40;;;;;;;15.00;10.50;;;3.50;29.30;;;;;;5048361;28;20554;-85
2023/01/28 12:18:53;;;;;;;14.10;10.63;;;3.50;25.40;;;;;;5075097;28;20173;-85
2023/01/28 12:21:40;;;;;;;15.90;11.97;;;3.60;24.70;;;;;;5010628;28;20297;-89
2023/01/28 12:24:39;;;;;;;13.87;10.00;;;3.60;27.40;;;;;;4983167;28;20349;-84
2023/01/28 12:27:26;;;;;;;17.17;11.43;;;3.70;1.00;;;;;;5003692;28;20242;-83
2023/01/28 12:30:18;;;;;;;14.57;11.40;;;3.70;1.00;;;;;;5022637;28;20185;-84
2023/01/28 12:33:13;;;;;;;15.03;11.83;;;3.70;1.00;;;;;;5052044;28;20265;-83
2023/01/28 12:36:09;;;;;;;14.67;11.60;;;3.70;1.00;;;;;;5055652;28;20665;-83
2023/01/28 12:39:20;;;;;;;15.83;11.37;;;3.70;1.00;;;;;;5042747;28;20741;-85
2023/01/28 12:42:32;;;;;;;14.57;10.80;;;3.60;1.00;;;;;;5056474;28;20637;-86
2023/01/28 12:45:24;;;;;;;15.00;12.03;;;3.90;1.00;;;;;;5060450;28;20187;-84
2023/01/28 12:48:12;;;;;;;21.87;12.27;;;4.20;1.00;;;;;;5043403;28;20573;-82
2023/01/28 12:50:59;;;;;;;18.43;12.70;;;4.60;1.00;;;;;;5046084;28;20188;-80
2023/01/28 12:53:51;;;;;;;16.00;11.67;;;4.90;1.00;;;;;;5056804;28;20189;-82
2023/01/28 12:56:22;;;;;;;14.47;10.90;;;4.70;1.00;;;;;;5056154;28;20181;-82
2023/01/28 12:59:03;;;;;;;14.83;11.20;;;4.60;1.00;;;;;;5058705;28;20180;-84
2023/01/28 13:01:43;;;;;;;14.30;11.10;;;4.60;1.00;;;;;;5047229;28;20180;-82
2023/01/28 13:04:27;;;;;;;14.67;12.03;;;4.60;1.00;;;;;;5055961;28;20208;-85
2023/01/28 13:07:06;;;;;;;14.70;11.63;;;4.70;1.00;;;;;;5057479;28;20161;-83
2023/01/28 13:09:36;;;;;;;15.97;11.17;;;4.90;1.00;;;;;;5054268;28;20173;-84
2023/01/28 13:12:02;;;;;;;18.43;13.03;;;5.00;1.00;;;;;;5055097;28;20180;-85
2023/01/28 13:14:32;;;;;;;15.40;12.17;;;5.00;1.00;;;;;;5057146;28;20169;-86
2023/01/28 13:17:30;;;;;;;16.53;12.27;;;5.40;1.00;;;;;;5058509;28;20222;-83
2023/01/28 13:19:57;;;;;;;13.43;11.03;;;5.30;1.00;;;;;;5059244;28;20181;-83
2023/01/28 13:22:35;;;;;;;12.93;10.77;;;5.40;1.00;;;;;;5059061;28;20195;-84
2023/01/28 13:25:22;;;;;;;12.40;10.20;;;5.50;1.00;;;;;;5055950;28;20196;-85
2023/01/28 13:28:01;;;;;;;13.50;11.37;;;5.30;1.00;;;;;;5041834;28;20565;-85
2023/01/28 13:30:32;;;;;;;14.70;10.80;;;5.20;1.00;;;;;;5042628;28;20177;-86
2023/01/28 13:33:04;;;;;;;14.43;11.30;;;5.10;1.00;;;;;;5055839;28;20284;-85